createdAt,value
2017-07-21T00:00:11.684Z,1007.47
2017-07-21T00:01:00.757Z,1007.47
2017-07-21T00:01:48.320Z,1007.49
2017-07-21T00:02:36.343Z,1007.50
2017-07-21T00:03:25.302Z,1007.48
2017-07-21T00:04:13.428Z,1007.48
2017-07-21T00:05:01.477Z,1007.51
2017-07-21T00:05:51.005Z,1007.50
2017-07-21T00:06:38.622Z,1007.48
2017-07-21T00:07:26.569Z,1007.48
2017-07-21T00:08:15.643Z,1007.51
2017-07-21T00:09:03.599Z,1007.51
2017-07-21T00:09:51.750Z,1007.53
2017-07-21T00:10:44.728Z,1007.54
2017-07-21T00:11:28.849Z,1007.53
2017-07-21T00:12:16.835Z,1007.60
2017-07-21T00:13:05.809Z,1007.59
2017-07-21T00:13:53.974Z,1007.55
2017-07-21T00:14:42.041Z,1007.57
2017-07-21T00:15:31.047Z,1007.59
2017-07-21T00:16:19.074Z,1007.57
2017-07-21T00:17:07.218Z,1007.61
2017-07-21T00:17:56.204Z,1007.61
2017-07-21T00:18:44.161Z,1007.63
2017-07-21T00:19:32.309Z,1007.64
2017-07-21T00:20:20.227Z,1007.65
2017-07-21T00:21:09.350Z,1007.63
2017-07-21T00:21:57.424Z,1007.63
2017-07-21T00:22:45.427Z,1007.64
2017-07-21T00:23:33.489Z,1007.65
2017-07-21T00:24:27.487Z,1007.63
2017-07-21T00:25:15.571Z,1007.63
2017-07-21T00:26:09.573Z,1007.63
2017-07-21T00:26:58.661Z,1007.64
2017-07-21T00:27:47.616Z,1007.61
2017-07-21T00:28:41.797Z,1007.57
2017-07-21T00:29:30.811Z,1007.58
2017-07-21T00:30:24.875Z,1007.57
2017-07-21T00:31:13.972Z,1007.56
2017-07-21T00:32:02.937Z,1007.55
2017-07-21T00:32:50.977Z,1007.55
2017-07-21T00:33:51.966Z,1007.57
2017-07-21T00:34:45.993Z,1007.62
2017-07-21T00:35:46.043Z,1007.57
2017-07-21T00:36:41.035Z,1007.63
2017-07-21T00:37:36.314Z,1007.63
2017-07-21T00:38:36.132Z,1007.63
2017-07-21T00:39:31.275Z,1007.60
2017-07-21T00:40:26.289Z,1007.62
2017-07-21T00:41:27.345Z,1007.61
2017-07-21T00:42:27.363Z,1007.62
2017-07-21T00:43:27.452Z,1007.61
2017-07-21T00:44:22.323Z,1007.57
2017-07-21T00:45:16.557Z,1007.57
2017-07-21T00:46:16.482Z,1007.56
2017-07-21T00:47:11.477Z,1007.54
2017-07-21T00:48:11.615Z,1007.57
2017-07-21T00:49:05.542Z,1007.57
2017-07-21T00:50:05.527Z,1007.53
2017-07-21T00:51:00.984Z,1007.60
2017-07-21T00:51:55.765Z,1007.58
2017-07-21T00:52:55.742Z,1007.59
2017-07-21T00:53:50.691Z,1007.61
2017-07-21T00:54:45.828Z,1007.60
2017-07-21T00:55:47.138Z,1007.61
2017-07-21T00:56:46.871Z,1007.56
2017-07-21T00:57:46.889Z,1007.57
2017-07-21T00:58:41.933Z,1007.54
2017-07-21T00:59:41.901Z,1007.53
2017-07-21T01:00:42.431Z,1007.56
2017-07-21T01:01:36.038Z,1007.55
2017-07-21T01:02:36.114Z,1007.56
2017-07-21T01:03:31.266Z,1007.57
2017-07-21T01:04:31.242Z,1007.61
2017-07-21T01:05:25.166Z,1007.59
2017-07-21T01:06:13.220Z,1007.58
2017-07-21T01:07:02.229Z,1007.58
2017-07-21T01:07:50.306Z,1007.59
2017-07-21T01:08:38.378Z,1007.56
2017-07-21T01:09:26.409Z,1007.56
2017-07-21T01:10:15.674Z,1007.52
2017-07-21T01:11:03.941Z,1007.53
2017-07-21T01:11:51.589Z,1007.56
2017-07-21T01:12:40.667Z,1007.52
2017-07-21T01:13:28.617Z,1007.54
2017-07-21T01:14:16.646Z,1007.54
2017-07-21T01:15:17.628Z,1007.54
2017-07-21T01:16:18.720Z,1007.56
2017-07-21T01:17:12.780Z,1007.56
2017-07-21T01:18:13.731Z,1007.56
2017-07-21T01:19:13.842Z,1007.60
2017-07-21T01:20:09.275Z,1007.57
2017-07-21T01:21:09.016Z,1007.57
2017-07-21T01:22:02.913Z,1007.59
2017-07-21T01:23:02.868Z,1007.54
2017-07-21T01:23:57.995Z,1007.57
2017-07-21T01:24:53.020Z,1007.59
2017-07-21T01:25:53.088Z,1007.57
2017-07-21T01:26:48.149Z,1007.58
2017-07-21T01:27:43.414Z,1007.54
2017-07-21T01:28:49.226Z,1007.57
2017-07-21T01:29:43.407Z,1007.51
2017-07-21T01:30:43.201Z,1007.59
2017-07-21T01:31:38.245Z,1007.55
2017-07-21T01:32:38.363Z,1007.56
2017-07-21T01:33:38.285Z,1007.57
2017-07-21T01:34:44.347Z,1007.51
2017-07-21T01:35:39.401Z,1007.54
2017-07-21T01:36:40.487Z,1007.51
2017-07-21T01:37:40.486Z,1007.56
2017-07-21T01:38:35.528Z,1007.52
2017-07-21T01:39:35.573Z,1007.52
2017-07-21T01:40:29.566Z,1007.50
2017-07-21T01:41:30.603Z,1007.54
2017-07-21T01:42:30.679Z,1007.49
2017-07-21T01:43:25.693Z,1007.49
2017-07-21T01:44:31.765Z,1007.52
2017-07-21T01:45:31.753Z,1007.52
2017-07-21T01:46:32.833Z,1007.54
2017-07-21T01:47:26.877Z,1007.53
2017-07-21T01:48:27.019Z,1007.57
2017-07-21T01:49:21.837Z,1007.59
2017-07-21T01:50:17.317Z,1007.59
2017-07-21T01:51:17.974Z,1007.60
2017-07-21T01:52:19.029Z,1007.59
2017-07-21T01:53:14.079Z,1007.60
2017-07-21T01:54:08.108Z,1007.58
2017-07-21T01:55:08.132Z,1007.57
2017-07-21T01:56:03.671Z,1007.56
2017-07-21T01:57:03.170Z,1007.58
2017-07-21T01:57:57.131Z,1007.60
2017-07-21T01:58:57.269Z,1007.59
2017-07-21T01:59:52.441Z,1007.58
2017-07-21T02:00:47.305Z,1007.60
2017-07-21T02:01:47.406Z,1007.63
2017-07-21T02:02:42.429Z,1007.62
2017-07-21T02:03:42.455Z,1007.65
2017-07-21T02:04:42.429Z,1007.67
2017-07-21T02:05:48.482Z,1007.63
2017-07-21T02:06:43.428Z,1007.66
2017-07-21T02:07:43.481Z,1007.64
2017-07-21T02:08:43.563Z,1007.67
2017-07-21T02:09:43.628Z,1007.66
2017-07-21T02:10:38.665Z,1007.65
2017-07-21T02:11:33.823Z,1007.64
2017-07-21T02:12:33.736Z,1007.64
2017-07-21T02:13:28.817Z,1007.66
2017-07-21T02:14:23.885Z,1007.63
2017-07-21T02:15:24.134Z,1007.68
2017-07-21T02:16:18.833Z,1007.65
2017-07-21T02:17:13.976Z,1007.64
2017-07-21T02:18:19.991Z,1007.66
2017-07-21T02:19:14.004Z,1007.61
2017-07-21T02:20:15.078Z,1007.62
2017-07-21T02:21:14.974Z,1007.59
2017-07-21T02:22:15.191Z,1007.63
2017-07-21T02:23:15.112Z,1007.63
2017-07-21T02:24:16.237Z,1007.65
2017-07-21T02:25:17.465Z,1007.63
2017-07-21T02:26:17.246Z,1007.66
2017-07-21T02:27:23.325Z,1007.67
2017-07-21T02:28:18.293Z,1007.68
2017-07-21T02:29:18.392Z,1007.68
2017-07-21T02:30:13.370Z,1007.70
2017-07-21T02:31:08.870Z,1007.70
2017-07-21T02:32:09.433Z,1007.71
2017-07-21T02:33:09.522Z,1007.73
2017-07-21T02:34:09.448Z,1007.73
2017-07-21T02:35:09.526Z,1007.75
2017-07-21T02:36:10.940Z,1007.73
2017-07-21T02:37:11.539Z,1007.70
2017-07-21T02:38:05.557Z,1007.72
2017-07-21T02:39:05.711Z,1007.76
2017-07-21T02:40:00.645Z,1007.76
2017-07-21T02:41:00.714Z,1007.78
2017-07-21T02:42:00.777Z,1007.78
2017-07-21T02:43:00.847Z,1007.79
2017-07-21T02:43:54.842Z,1007.85
2017-07-21T02:44:54.877Z,1007.85
2017-07-21T02:45:49.847Z,1007.83
2017-07-21T02:46:45.014Z,1007.86
2017-07-21T02:47:44.954Z,1007.87
2017-07-21T02:48:39.950Z,1007.90
2017-07-21T02:49:35.021Z,1007.90
2017-07-21T02:50:35.352Z,1007.91
2017-07-21T02:51:30.050Z,1007.93
2017-07-21T02:52:30.153Z,1007.91
2017-07-21T02:53:30.173Z,1007.96
2017-07-21T02:54:30.180Z,1007.98
2017-07-21T02:55:24.322Z,1007.94
2017-07-21T02:56:24.467Z,1007.97
2017-07-21T02:57:19.333Z,1007.95
2017-07-21T02:58:14.355Z,1007.97
2017-07-21T02:59:15.345Z,1007.95
2017-07-21T03:00:16.435Z,1007.94
2017-07-21T03:01:11.397Z,1007.96
2017-07-21T03:02:05.643Z,1007.95
2017-07-21T03:03:06.596Z,1007.97
2017-07-21T03:04:01.605Z,1008.00
2017-07-21T03:04:55.563Z,1008.01
2017-07-21T03:05:55.677Z,1007.99
2017-07-21T03:06:50.663Z,1007.99
2017-07-21T03:07:45.728Z,1008.00
2017-07-21T03:08:45.691Z,1007.95
2017-07-21T03:09:40.726Z,1007.95
2017-07-21T03:10:40.792Z,1007.98
2017-07-21T03:11:40.860Z,1007.95
2017-07-21T03:12:40.885Z,1007.99
2017-07-21T03:13:35.027Z,1007.98
2017-07-21T03:14:34.935Z,1007.97
2017-07-21T03:15:29.982Z,1007.97
2017-07-21T03:16:25.075Z,1008.02
2017-07-21T03:17:25.087Z,1008.04
2017-07-21T03:18:20.121Z,1008.07
2017-07-21T03:19:15.173Z,1008.04
2017-07-21T03:20:16.149Z,1008.07
2017-07-21T03:21:17.182Z,1008.08
2017-07-21T03:22:17.183Z,1008.08
2017-07-21T03:23:17.301Z,1008.07
2017-07-21T03:24:17.242Z,1008.08
2017-07-21T03:25:17.410Z,1008.11
2017-07-21T03:26:17.400Z,1008.09
2017-07-21T03:27:17.410Z,1008.13
2017-07-21T03:28:17.420Z,1008.13
2017-07-21T03:29:17.443Z,1008.12
2017-07-21T03:30:18.645Z,1008.14
2017-07-21T03:31:13.510Z,1008.13
2017-07-21T03:32:07.621Z,1008.15
2017-07-21T03:33:07.566Z,1008.13
2017-07-21T03:34:02.724Z,1008.10
2017-07-21T03:34:57.739Z,1008.13
2017-07-21T03:35:57.739Z,1008.10
2017-07-21T03:36:52.658Z,1008.10
2017-07-21T03:37:47.863Z,1008.12
2017-07-21T03:38:41.891Z,1008.12
2017-07-21T03:39:41.812Z,1008.13
2017-07-21T03:40:36.893Z,1008.13
2017-07-21T03:41:37.079Z,1008.15
2017-07-21T03:42:37.061Z,1008.12
2017-07-21T03:43:37.072Z,1008.15
2017-07-21T03:44:31.157Z,1008.18
2017-07-21T03:45:31.248Z,1008.20
2017-07-21T03:46:26.173Z,1008.16
2017-07-21T03:47:21.257Z,1008.16
2017-07-21T03:48:15.246Z,1008.19
2017-07-21T03:49:15.102Z,1008.18
2017-07-21T03:50:10.353Z,1008.24
2017-07-21T03:51:05.235Z,1008.26
2017-07-21T03:52:06.598Z,1008.25
2017-07-21T03:53:06.560Z,1008.22
2017-07-21T03:54:01.429Z,1008.23
2017-07-21T03:54:56.524Z,1008.21
2017-07-21T03:55:57.499Z,1008.18
2017-07-21T03:56:57.521Z,1008.18
2017-07-21T03:57:52.534Z,1008.24
2017-07-21T03:58:47.567Z,1008.21
2017-07-21T03:59:47.534Z,1008.19
2017-07-21T04:00:42.540Z,1008.23
2017-07-21T04:01:37.763Z,1008.26
2017-07-21T04:02:31.742Z,1008.25
2017-07-21T04:03:31.766Z,1008.26
2017-07-21T04:04:26.824Z,1008.26
2017-07-21T04:05:22.271Z,1008.27
2017-07-21T04:06:21.894Z,1008.30
2017-07-21T04:07:16.898Z,1008.27
2017-07-21T04:08:11.933Z,1008.30
2017-07-21T04:09:05.886Z,1008.31
2017-07-21T04:10:07.043Z,1008.32
2017-07-21T04:11:08.087Z,1008.30
2017-07-21T04:12:03.383Z,1008.33
2017-07-21T04:12:57.056Z,1008.32
2017-07-21T04:13:57.229Z,1008.28
2017-07-21T04:14:52.120Z,1008.31
2017-07-21T04:15:52.320Z,1008.28
2017-07-21T04:16:53.216Z,1008.33
2017-07-21T04:17:47.255Z,1008.26
2017-07-21T04:18:47.279Z,1008.29
2017-07-21T04:19:42.355Z,1008.31
2017-07-21T04:20:37.323Z,1008.29
2017-07-21T04:21:31.443Z,1008.30
2017-07-21T04:22:32.462Z,1008.30
2017-07-21T04:23:33.537Z,1008.32
2017-07-21T04:24:28.577Z,1008.29
2017-07-21T04:25:29.078Z,1008.34
2017-07-21T04:26:28.587Z,1008.33
2017-07-21T04:27:28.716Z,1008.32
2017-07-21T04:28:28.622Z,1008.34
2017-07-21T04:29:28.702Z,1008.34
2017-07-21T04:30:29.330Z,1008.31
2017-07-21T04:31:28.803Z,1008.35
2017-07-21T04:32:28.882Z,1008.34
2017-07-21T04:33:28.880Z,1008.31
2017-07-21T04:34:28.888Z,1008.39
2017-07-21T04:35:29.466Z,1008.36
2017-07-21T04:36:28.935Z,1008.41
2017-07-21T04:37:28.994Z,1008.44
2017-07-21T04:38:29.103Z,1008.39
2017-07-21T04:39:29.140Z,1008.44
2017-07-21T04:40:29.582Z,1008.44
2017-07-21T04:41:29.121Z,1008.46
2017-07-21T04:42:29.102Z,1008.46
2017-07-21T04:43:29.280Z,1008.48
2017-07-21T04:44:29.265Z,1008.51
2017-07-21T04:45:29.742Z,1008.47
2017-07-21T04:46:35.247Z,1008.45
2017-07-21T04:47:30.380Z,1008.48
2017-07-21T04:48:24.413Z,1008.54
2017-07-21T04:49:24.471Z,1008.54
2017-07-21T04:50:19.471Z,1008.49
2017-07-21T04:51:14.473Z,1008.52
2017-07-21T04:52:14.950Z,1008.50
2017-07-21T04:53:09.494Z,1008.54
2017-07-21T04:54:05.024Z,1008.54
2017-07-21T04:54:58.765Z,1008.55
2017-07-21T04:55:59.949Z,1008.52
2017-07-21T04:56:53.706Z,1008.54
2017-07-21T04:57:42.827Z,1008.53
2017-07-21T04:58:42.836Z,1008.54
2017-07-21T04:59:37.917Z,1008.55
2017-07-21T05:00:32.448Z,1008.54
2017-07-21T05:01:32.164Z,1008.53
2017-07-21T05:02:26.045Z,1008.50
2017-07-21T05:03:33.297Z,1008.53
2017-07-21T05:04:33.413Z,1008.51
2017-07-21T05:05:28.486Z,1008.54
2017-07-21T05:06:17.535Z,1008.54
2017-07-21T05:07:06.600Z,1008.52
2017-07-21T05:08:00.619Z,1008.48
2017-07-21T05:09:00.724Z,1008.51
2017-07-21T05:10:00.830Z,1008.52
2017-07-21T05:11:00.769Z,1008.51
2017-07-21T05:12:00.746Z,1008.54
2017-07-21T05:13:00.862Z,1008.56
2017-07-21T05:14:00.979Z,1008.52
2017-07-21T05:15:00.924Z,1008.54
2017-07-21T05:15:54.922Z,1008.56
2017-07-21T05:16:56.026Z,1008.54
2017-07-21T05:17:56.071Z,1008.55
2017-07-21T05:18:56.156Z,1008.55
2017-07-21T05:19:50.128Z,1008.55
2017-07-21T05:20:39.254Z,1008.53
2017-07-21T05:21:34.276Z,1008.50
2017-07-21T05:22:34.255Z,1008.58
2017-07-21T05:23:28.237Z,1008.60
2017-07-21T05:24:28.360Z,1008.56
2017-07-21T05:25:17.445Z,1008.57
2017-07-21T05:26:06.103Z,1008.61
2017-07-21T05:26:55.331Z,1008.60
2017-07-21T05:27:49.366Z,1008.62
2017-07-21T05:28:44.377Z,1008.59
2017-07-21T05:29:33.376Z,1008.57
2017-07-21T05:30:28.748Z,1008.63
2017-07-21T05:31:22.571Z,1008.58
2017-07-21T05:32:17.346Z,1008.61
2017-07-21T05:33:05.886Z,1008.61
2017-07-21T05:33:53.522Z,1008.62
2017-07-21T05:34:42.880Z,1008.62
2017-07-21T05:35:31.130Z,1008.64
2017-07-21T05:36:20.078Z,1008.63
2017-07-21T05:37:14.704Z,1008.64
2017-07-21T05:38:09.050Z,1008.66
2017-07-21T05:39:02.768Z,1008.65
2017-07-21T05:39:51.833Z,1008.67
2017-07-21T05:40:46.326Z,1008.64
2017-07-21T05:41:39.985Z,1008.65
2017-07-21T05:42:41.448Z,1008.65
2017-07-21T05:43:41.383Z,1008.67
2017-07-21T05:44:35.292Z,1008.67
2017-07-21T05:45:24.673Z,1008.66
2017-07-21T05:46:24.427Z,1008.72
2017-07-21T05:47:19.453Z,1008.74
2017-07-21T05:48:13.703Z,1008.73
2017-07-21T05:49:07.589Z,1008.74
2017-07-21T05:50:02.356Z,1008.77
2017-07-21T05:50:51.829Z,1008.78
2017-07-21T05:51:46.813Z,1008.76
2017-07-21T05:52:46.858Z,1008.77
2017-07-21T05:53:42.022Z,1008.79
2017-07-21T05:54:41.845Z,1008.73
2017-07-21T05:55:36.058Z,1008.75
2017-07-21T05:56:25.141Z,1008.77
2017-07-21T05:57:14.146Z,1008.79
2017-07-21T05:58:08.276Z,1008.79
2017-07-21T05:59:02.339Z,1008.76
2017-07-21T05:59:57.353Z,1008.76
2017-07-21T06:00:51.233Z,1008.77
2017-07-21T06:01:40.234Z,1008.79
2017-07-21T06:02:34.411Z,1008.79
2017-07-21T06:03:23.283Z,1008.84
2017-07-21T06:04:18.641Z,1008.83
2017-07-21T06:05:18.535Z,1008.82
2017-07-21T06:06:12.681Z,1008.83
2017-07-21T06:07:06.827Z,1008.89
2017-07-21T06:07:55.735Z,1008.88
2017-07-21T06:08:49.847Z,1008.89
2017-07-21T06:09:50.859Z,1008.96
2017-07-21T06:10:50.985Z,1008.86
2017-07-21T06:11:40.053Z,1008.90
2017-07-21T06:12:35.142Z,1008.92
2017-07-21T06:13:35.209Z,1008.92
2017-07-21T06:14:24.197Z,1008.93
2017-07-21T06:15:18.320Z,1008.94
2017-07-21T06:16:12.984Z,1008.97
2017-07-21T06:17:07.353Z,1008.98
2017-07-21T06:18:02.238Z,1008.94
2017-07-21T06:18:51.435Z,1008.95
2017-07-21T06:19:45.397Z,1008.97
2017-07-21T06:20:39.577Z,1008.96
2017-07-21T06:21:39.581Z,1008.98
2017-07-21T06:22:34.601Z,1008.92
2017-07-21T06:23:23.645Z,1008.93
2017-07-21T06:24:12.751Z,1008.92
2017-07-21T06:25:07.794Z,1008.91
2017-07-21T06:25:55.877Z,1008.92
2017-07-21T06:26:50.975Z,1008.92
2017-07-21T06:27:40.002Z,1008.96
2017-07-21T06:28:35.018Z,1008.99
2017-07-21T06:29:35.141Z,1008.98
2017-07-21T06:30:30.242Z,1008.97
2017-07-21T06:31:25.198Z,1008.95
2017-07-21T06:32:19.352Z,1009.04
2017-07-21T06:33:08.297Z,1009.06
2017-07-21T06:33:57.511Z,1009.02
2017-07-21T06:34:51.379Z,1009.06
2017-07-21T06:35:51.654Z,1009.04
2017-07-21T06:36:45.551Z,1009.09
2017-07-21T06:37:39.678Z,1009.03
2017-07-21T06:38:39.714Z,1009.01
2017-07-21T06:39:34.743Z,1009.04
2017-07-21T06:40:28.835Z,1009.07
2017-07-21T06:41:23.841Z,1009.10
2017-07-21T06:42:17.921Z,1009.08
2017-07-21T06:43:12.008Z,1009.12
2017-07-21T06:44:07.047Z,1009.11
2017-07-21T06:45:02.207Z,1009.12
2017-07-21T06:46:02.144Z,1009.13
2017-07-21T06:46:56.232Z,1009.10
2017-07-21T06:47:57.191Z,1009.12
2017-07-21T06:48:51.364Z,1009.13
2017-07-21T06:49:45.322Z,1009.13
2017-07-21T06:50:40.491Z,1009.13
2017-07-21T06:51:28.441Z,1009.16
2017-07-21T06:52:17.574Z,1009.12
2017-07-21T06:53:12.556Z,1009.09
2017-07-21T06:54:06.604Z,1009.09
2017-07-21T06:54:55.675Z,1009.08
2017-07-21T06:55:44.823Z,1009.14
2017-07-21T06:56:33.834Z,1009.15
2017-07-21T06:57:28.870Z,1009.12
2017-07-21T06:58:23.127Z,1009.13
2017-07-21T06:59:23.054Z,1009.19
2017-07-21T07:00:17.948Z,1009.18
2017-07-21T07:01:12.195Z,1009.18
2017-07-21T07:02:06.115Z,1009.20
2017-07-21T07:02:55.213Z,1009.22
2017-07-21T07:03:55.341Z,1009.22
2017-07-21T07:04:44.327Z,1009.26
2017-07-21T07:05:38.377Z,1009.22
2017-07-21T07:06:27.585Z,1009.23
2017-07-21T07:07:22.499Z,1009.20
2017-07-21T07:08:16.647Z,1009.22
2017-07-21T07:09:10.577Z,1009.22
2017-07-21T07:10:04.671Z,1009.23
2017-07-21T07:10:53.726Z,1009.22
2017-07-21T07:11:47.866Z,1009.21
2017-07-21T07:12:42.881Z,1009.19
2017-07-21T07:13:36.938Z,1009.25
2017-07-21T07:14:25.989Z,1009.31
2017-07-21T07:15:21.038Z,1009.34
2017-07-21T07:16:15.088Z,1009.33
2017-07-21T07:17:09.250Z,1009.33
2017-07-21T07:17:58.214Z,1009.32
2017-07-21T07:18:47.240Z,1009.26
2017-07-21T07:19:35.420Z,1009.28
2017-07-21T07:20:29.387Z,1009.24
2017-07-21T07:21:23.424Z,1009.22
2017-07-21T07:22:18.819Z,1009.22
2017-07-21T07:23:18.631Z,1009.21
2017-07-21T07:24:12.601Z,1009.20
2017-07-21T07:25:00.710Z,1009.18
2017-07-21T07:26:01.821Z,1009.19
2017-07-21T07:26:55.868Z,1009.20
2017-07-21T07:27:45.200Z,1009.18
2017-07-21T07:28:39.850Z,1009.19
2017-07-21T07:29:39.976Z,1009.18
2017-07-21T07:30:29.082Z,1009.18
2017-07-21T07:31:23.106Z,1009.19
2017-07-21T07:32:17.183Z,1009.21
2017-07-21T07:33:06.626Z,1009.20
2017-07-21T07:34:00.370Z,1009.19
2017-07-21T07:34:54.355Z,1009.17
2017-07-21T07:35:48.392Z,1009.18
2017-07-21T07:36:36.471Z,1009.19
2017-07-21T07:37:36.569Z,1009.21
2017-07-21T07:38:38.002Z,1009.20
2017-07-21T07:39:26.725Z,1009.20
2017-07-21T07:40:14.792Z,1009.17
2017-07-21T07:41:02.858Z,1009.16
2017-07-21T07:41:56.909Z,1009.18
2017-07-21T07:42:51.069Z,1009.13
2017-07-21T07:43:40.156Z,1009.13
2017-07-21T07:44:34.194Z,1009.12
2017-07-21T07:45:28.245Z,1009.09
2017-07-21T07:46:22.299Z,1009.12
2017-07-21T07:47:17.369Z,1009.13
2017-07-21T07:48:11.413Z,1009.10
2017-07-21T07:49:11.507Z,1009.11
2017-07-21T07:50:05.507Z,1009.09
2017-07-21T07:50:53.655Z,1009.12
2017-07-21T07:51:47.762Z,1009.14
2017-07-21T07:52:42.762Z,1009.14
2017-07-21T07:53:36.795Z,1009.16
2017-07-21T07:54:31.006Z,1009.12
2017-07-21T07:55:20.003Z,1009.12
2017-07-21T07:56:08.014Z,1009.12
2017-07-21T07:56:56.133Z,1009.12
2017-07-21T07:57:45.184Z,1009.13
2017-07-21T07:58:39.315Z,1009.15
2017-07-21T07:59:33.405Z,1009.13
2017-07-21T08:00:28.416Z,1009.11
2017-07-21T08:01:22.520Z,1009.14
2017-07-21T08:02:11.543Z,1009.10
2017-07-21T08:03:05.598Z,1009.14
2017-07-21T08:03:54.704Z,1009.10
2017-07-21T08:04:54.834Z,1009.12
2017-07-21T08:05:49.872Z,1009.17
2017-07-21T08:06:43.903Z,1009.09
2017-07-21T08:07:38.887Z,1009.16
2017-07-21T08:08:34.001Z,1009.11
2017-07-21T08:09:28.090Z,1009.15
2017-07-21T08:10:23.192Z,1009.15
2017-07-21T08:11:17.119Z,1009.13
2017-07-21T08:12:12.237Z,1009.12
2017-07-21T08:13:00.340Z,1009.04
2017-07-21T08:13:54.402Z,1009.05
2017-07-21T08:14:48.468Z,1009.09
2017-07-21T08:15:42.518Z,1009.08
2017-07-21T08:16:42.616Z,1009.06
2017-07-21T08:17:36.585Z,1009.14
2017-07-21T08:18:30.682Z,1009.07
2017-07-21T08:19:19.928Z,1009.06
2017-07-21T08:20:08.012Z,1009.05
2017-07-21T08:21:08.013Z,1009.03
2017-07-21T08:21:56.139Z,1009.05
2017-07-21T08:22:45.165Z,1009.10
2017-07-21T08:23:33.263Z,1009.09
2017-07-21T08:24:27.309Z,1009.10
2017-07-21T08:25:21.377Z,1009.09
2017-07-21T08:26:16.724Z,1009.07
2017-07-21T08:27:05.495Z,1009.06
2017-07-21T08:28:00.622Z,1009.03
2017-07-21T08:28:48.686Z,1009.05
2017-07-21T08:29:37.810Z,1008.99
2017-07-21T08:30:26.875Z,1009.02
2017-07-21T08:31:21.212Z,1009.03
2017-07-21T08:32:16.008Z,1009.09
2017-07-21T08:33:04.156Z,1009.03
2017-07-21T08:33:59.124Z,1009.02
2017-07-21T08:34:47.228Z,1009.07
2017-07-21T08:35:41.259Z,1009.10
2017-07-21T08:36:35.569Z,1009.11
2017-07-21T08:37:29.418Z,1009.12
2017-07-21T08:38:24.564Z,1009.11
2017-07-21T08:39:19.519Z,1009.11
2017-07-21T08:40:13.619Z,1009.13
2017-07-21T08:41:01.594Z,1009.17
2017-07-21T08:41:50.043Z,1009.17
2017-07-21T08:42:37.797Z,1009.14
2017-07-21T08:43:31.808Z,1009.09
2017-07-21T08:44:20.926Z,1009.11
2017-07-21T08:45:10.002Z,1009.09
2017-07-21T08:46:05.153Z,1009.13
2017-07-21T08:47:00.300Z,1009.18
2017-07-21T08:47:54.224Z,1009.18
2017-07-21T08:48:49.362Z,1009.12
2017-07-21T08:49:44.419Z,1009.12
2017-07-21T08:50:45.514Z,1009.14
2017-07-21T08:51:39.522Z,1009.11
2017-07-21T08:52:33.690Z,1009.11
2017-07-21T08:53:27.798Z,1009.18
2017-07-21T08:54:21.889Z,1009.14
2017-07-21T08:55:15.893Z,1009.17
2017-07-21T08:56:10.949Z,1009.16
2017-07-21T08:56:59.092Z,1009.13
2017-07-21T08:57:59.188Z,1009.16
2017-07-21T08:58:54.247Z,1009.17
2017-07-21T08:59:43.183Z,1009.19
2017-07-21T09:00:32.397Z,1009.13
2017-07-21T09:01:27.333Z,1009.16
2017-07-21T09:02:21.489Z,1009.22
2017-07-21T09:03:15.601Z,1009.17
2017-07-21T09:04:09.653Z,1009.17
2017-07-21T09:05:04.759Z,1009.16
2017-07-21T09:05:59.687Z,1009.18
2017-07-21T09:06:54.862Z,1009.21
2017-07-21T09:07:54.903Z,1009.23
2017-07-21T09:08:44.079Z,1009.19
2017-07-21T09:09:38.046Z,1009.19
2017-07-21T09:10:38.165Z,1009.18
2017-07-21T09:11:26.258Z,1009.16
2017-07-21T09:12:15.394Z,1009.17
2017-07-21T09:13:09.350Z,1009.17
2017-07-21T09:14:09.559Z,1009.21
2017-07-21T09:14:58.532Z,1009.18
2017-07-21T09:15:52.613Z,1009.16
2017-07-21T09:16:46.656Z,1009.15
2017-07-21T09:17:35.820Z,1009.17
2017-07-21T09:18:29.781Z,1009.22
2017-07-21T09:19:19.403Z,1009.15
2017-07-21T09:20:13.985Z,1009.14
2017-07-21T09:21:08.063Z,1009.16
2017-07-21T09:22:02.156Z,1009.09
2017-07-21T09:22:51.227Z,1009.11
2017-07-21T09:23:39.391Z,1009.11
2017-07-21T09:24:34.637Z,1009.08
2017-07-21T09:25:23.533Z,1009.12
2017-07-21T09:26:12.612Z,1009.05
2017-07-21T09:27:06.654Z,1009.09
2017-07-21T09:28:00.676Z,1009.10
2017-07-21T09:28:48.818Z,1009.11
2017-07-21T09:29:36.846Z,1009.06
2017-07-21T09:30:25.932Z,1009.09
2017-07-21T09:31:20.059Z,1009.12
2017-07-21T09:32:09.033Z,1009.03
2017-07-21T09:32:58.187Z,1009.03
2017-07-21T09:33:52.154Z,1009.11
2017-07-21T09:34:52.412Z,1009.09
2017-07-21T09:35:47.350Z,1009.04
2017-07-21T09:36:41.408Z,1009.07
2017-07-21T09:37:36.538Z,1009.08
2017-07-21T09:38:25.573Z,1009.10
2017-07-21T09:39:19.584Z,1009.07
2017-07-21T09:40:13.788Z,1009.04
2017-07-21T09:41:02.691Z,1009.12
2017-07-21T09:41:51.899Z,1009.10
2017-07-21T09:42:40.943Z,1009.08
2017-07-21T09:43:41.004Z,1009.06
2017-07-21T09:44:35.058Z,1009.05
2017-07-21T09:45:24.275Z,1009.10
2017-07-21T09:46:24.245Z,1009.04
2017-07-21T09:47:18.233Z,1009.08
2017-07-21T09:48:13.398Z,1009.05
2017-07-21T09:49:08.431Z,1009.11
2017-07-21T09:49:56.532Z,1009.10
2017-07-21T09:50:51.590Z,1009.14
2017-07-21T09:51:51.613Z,1009.07
2017-07-21T09:52:45.702Z,1009.12
2017-07-21T09:53:40.733Z,1009.06
2017-07-21T09:54:28.908Z,1009.06
2017-07-21T09:55:22.967Z,1009.03
2017-07-21T09:56:18.058Z,1009.06
2017-07-21T09:57:07.063Z,1009.11
2017-07-21T09:58:07.197Z,1009.03
2017-07-21T09:59:01.123Z,1009.06
2017-07-21T09:59:50.261Z,1009.05
2017-07-21T10:00:50.337Z,1009.04
2017-07-21T10:01:39.406Z,1009.05
2017-07-21T10:02:28.417Z,1009.02
2017-07-21T10:03:28.491Z,1009.00
2017-07-21T10:04:23.541Z,1009.07
2017-07-21T10:05:17.686Z,1009.08
2017-07-21T10:06:11.813Z,1009.01
2017-07-21T10:07:06.800Z,1009.02
2017-07-21T10:08:00.754Z,1009.06
2017-07-21T10:09:00.992Z,1009.05
2017-07-21T10:09:56.006Z,1009.06
2017-07-21T10:10:44.969Z,1009.02
2017-07-21T10:11:34.050Z,1009.08
2017-07-21T10:12:23.522Z,1009.02
2017-07-21T10:13:12.302Z,1009.08
2017-07-21T10:14:06.337Z,1009.04
2017-07-21T10:14:55.330Z,1009.06
2017-07-21T10:15:49.432Z,1009.09
2017-07-21T10:16:38.469Z,1009.11
2017-07-21T10:17:33.907Z,1009.09
2017-07-21T10:18:33.598Z,1009.01
2017-07-21T10:19:28.731Z,1009.03
2017-07-21T10:20:22.771Z,1009.03
2017-07-21T10:21:16.842Z,1008.97
2017-07-21T10:22:10.880Z,1008.98
2017-07-21T10:23:06.302Z,1009.01
2017-07-21T10:24:01.110Z,1009.01
2017-07-21T10:24:56.029Z,1009.00
2017-07-21T10:25:50.202Z,1008.97
2017-07-21T10:26:44.291Z,1008.97
2017-07-21T10:27:33.193Z,1009.00
2017-07-21T10:28:27.278Z,1008.94
2017-07-21T10:29:27.348Z,1008.94
2017-07-21T10:30:15.524Z,1008.83
2017-07-21T10:31:09.562Z,1008.87
2017-07-21T10:31:58.595Z,1008.89
2017-07-21T10:32:52.711Z,1008.83
2017-07-21T10:33:52.862Z,1008.93
2017-07-21T10:34:47.889Z,1008.88
2017-07-21T10:35:42.949Z,1008.96
2017-07-21T10:36:32.071Z,1008.66
2017-07-21T10:37:32.026Z,1008.93
2017-07-21T10:38:21.122Z,1008.97
2017-07-21T10:39:10.121Z,1008.83
2017-07-21T10:39:59.296Z,1008.65
2017-07-21T10:40:47.342Z,1008.87
2017-07-21T10:41:36.290Z,1008.81
2017-07-21T10:42:30.446Z,1008.76
2017-07-21T10:43:24.500Z,1008.80
2017-07-21T10:44:18.555Z,1008.77
2017-07-21T10:45:12.632Z,1008.77
2017-07-21T10:46:13.685Z,1008.76
2017-07-21T10:47:07.689Z,1008.80
2017-07-21T10:47:56.837Z,1008.78
2017-07-21T10:48:51.933Z,1008.75
2017-07-21T10:49:45.951Z,1008.74
2017-07-21T10:50:45.994Z,1008.76
2017-07-21T10:51:35.040Z,1008.76
2017-07-21T10:52:29.076Z,1008.75
2017-07-21T10:53:23.200Z,1008.77
2017-07-21T10:54:18.316Z,1008.75
2017-07-21T10:55:12.341Z,1008.73
2017-07-21T10:56:07.367Z,1008.73
2017-07-21T10:57:08.503Z,1008.73
2017-07-21T10:58:02.513Z,1008.71
2017-07-21T10:58:51.625Z,1008.73
2017-07-21T10:59:46.661Z,1008.79
2017-07-21T11:00:41.721Z,1008.79
2017-07-21T11:01:30.718Z,1008.84
2017-07-21T11:02:24.789Z,1008.82
2017-07-21T11:03:24.897Z,1008.83